• Join FlightAware (Why Join?)
  • Login
  • US Flag 
02:38AM EDT


 

Airport Tracker/Info


-or-


 

Live Flight TrackerFlight Track Log ✈ N26982 ✈ 07-Jun-2014 ✈ KPBI - KPIE

Flight Track Log - Related Links

Times and Time Zones

All times are in EDT time to prevent confusion due to time zone crossing. See the N26982 flight status page for this flight to view local times or setup timezone preferences in your user account.

Time Position Orientation Groundspeed Altitude Reporting Facility
EDT Latitude Longitude Course Direction KTS MPH feet Rate Location/Type
05:35PM 26.7801 -80.3021 298° West  Level FlightAware Approximate
05:36PM 26.7978 -80.3394 298° West  Level FlightAware Approximate
05:37PM 26.8154 -80.3768 298° West  Level FlightAware Approximate
05:38PM 26.8331 -80.4141 298° West  Level FlightAware Approximate
05:39PM 26.8507 -80.4515 298° West  Level FlightAware Approximate
05:40PM 26.8684 -80.4889 298° West  Level FlightAware Approximate
05:41PM 26.8860 -80.5263 298° West  Level FlightAware Approximate
05:42PM 26.9036 -80.5637 298° West  Level FlightAware Approximate
05:43PM 26.9213 -80.6012 298° West  Level FlightAware Approximate
05:44PM 26.9389 -80.6386 298° West  Level FlightAware Approximate
05:45PM 26.9564 -80.6760 298° West  Level FlightAware Approximate
05:46PM 26.9740 -80.7135 298° West  Level FlightAware Approximate
05:47PM 26.9920 -80.7507 299° West  Level FlightAware Approximate
05:48PM 27.0105 -80.7876 299° West  Level FlightAware Approximate
05:49PM 27.0290 -80.8246 299° West  Level FlightAware Approximate
05:50PM 27.0474 -80.8615 299° West  Level FlightAware Approximate
05:51PM 27.0659 -80.8985 299° West  Level FlightAware Approximate
05:52PM 27.0844 -80.9354 299° West  Level FlightAware Approximate
05:53PM 27.1029 -80.9723 299° West  Level FlightAware Approximate
05:54PM 27.1214 -81.0093 299° West  Level FlightAware Approximate
05:55PM 27.1399 -81.0463 299° West  Level FlightAware Approximate
05:56PM 27.1583 -81.0832 299° West  Level FlightAware Approximate
05:57PM 27.1768 -81.1202 299° West  Level FlightAware Approximate
05:58PM 27.1949 -81.1574 298° West  Level FlightAware Approximate
05:59PM 27.2128 -81.1948 298° West  Level FlightAware Approximate
06:00PM 27.2307 -81.2321 298° West  Level FlightAware Approximate
06:01PM 27.2486 -81.2695 298° West  Level FlightAware Approximate
06:02PM 27.2665 -81.3069 298° West  Level FlightAware Approximate
06:03PM 27.2844 -81.3443 298° West  Level FlightAware Approximate
06:04PM 27.3022 -81.3817 298° West  Level FlightAware Approximate
06:05PM 27.3201 -81.4191 298° West  Level FlightAware Approximate
06:06PM 27.3379 -81.4565 298° West  Level FlightAware Approximate
06:07PM 27.3557 -81.4940 298° West  Level FlightAware Approximate
06:08PM 27.3736 -81.5314 298° West  Level FlightAware Approximate
06:09PM 27.3914 -81.5689 298° West  Level FlightAware Approximate
06:10PM 27.4092 -81.6064 298° West  Level FlightAware Approximate
06:11PM 27.4270 -81.6439 298° West  Level FlightAware Approximate
06:12PM 27.4447 -81.6814 298° West  Level FlightAware Approximate
06:13PM 27.4625 -81.7189 298° West  Level FlightAware Approximate
06:14PM 27.4803 -81.7564 298° West  Level FlightAware Approximate
06:15PM 27.4980 -81.7939 298° West  Level FlightAware Approximate
06:16PM 27.5158 -81.8315 298° West  Level FlightAware Approximate
06:17PM 27.5335 -81.8690 298° West  Level FlightAware Approximate
06:18PM 27.5512 -81.9066 298° West  Level FlightAware Approximate
06:19PM 27.5689 -81.9442 298° West  Level FlightAware Approximate
06:20PM 27.5866 -81.9818 298° West  Level FlightAware Approximate
06:21PM 27.6043 -82.0194 298° West  Level FlightAware Approximate
06:22PM 27.6220 -82.0570 298° West  Level FlightAware Approximate
06:23PM 27.6397 -82.0947 298° West  Level FlightAware Approximate
06:24PM 27.6569 -82.1325 296° West  Level FlightAware Approximate
06:25PM 27.6736 -82.1708 296° West  Level FlightAware Approximate
06:26PM 27.6902 -82.2090 296° West  Level FlightAware Approximate
06:27PM 27.7069 -82.2473 296° West  Level FlightAware Approximate
06:28PM 27.7235 -82.2855 296° West  Level FlightAware Approximate
06:29PM 27.7401 -82.3238 296° West  Level FlightAware Approximate
06:30PM 27.7567 -82.3621 296° West  Level FlightAware Approximate
06:31PM 27.7733 -82.4004 296° West  Level FlightAware Approximate
06:32PM 27.7899 -82.4387 296° West  Level FlightAware Approximate
06:33PM 27.8064 -82.4770 296° West  Level FlightAware Approximate
06:34PM 27.8230 -82.5154 296° West  Level FlightAware Approximate
06:35PM 27.8395 -82.5537 296° West  Level FlightAware Approximate
06:36PM 27.8561 -82.5921 296° West  Level FlightAware Approximate
06:37PM 27.8733 -82.6300 300° West  Level FlightAware Approximate
06:38PM 27.8919 -82.6672 300° West  Level FlightAware Approximate
06:39PM 27.9000 -82.6833 300° West  Level FlightAware Approximate
06:40PM 27.9100 -82.6875 270° West  Level Estimated
06:41PM 27.9100 -82.6875 300° West  Level Estimated
06:42PM 27.9100 -82.6875 160° South  Level Estimated
06:43PM 27.9100 -82.6875 300° West  Level Estimated
06:44PM 27.9100 -82.6875 160° South  Level Estimated
06:45PM 27.9100 -82.6875 300° West  Level Estimated
06:46PM 27.9100 -82.6875 160° South  Level Estimated
06:47PM 27.9100 -82.6875 300° West  Level Estimated
06:48PM 27.9100 -82.6875 160° South  Level Estimated
06:49PM 27.9100 -82.6875 300° West  Level Estimated
06:50PM 27.9100 -82.6875 160° South  Level Estimated
06:51PM 27.9100 -82.6875 300° West  Level Estimated
06:52PM 27.9100 -82.6875 160° South  Level Estimated
06:53PM 27.9100 -82.6875 300° West  Level Estimated
06:54PM 27.9100 -82.6875 160° South  Level Estimated